createdAt,value
2017-07-04T00:00:28.317Z,57.43
2017-07-04T00:02:54.709Z,58.16
2017-07-04T00:05:21.118Z,57.36
2017-07-04T00:07:47.473Z,56.59
2017-07-04T00:10:13.793Z,56.91
2017-07-04T00:12:40.107Z,57.28
2017-07-04T00:15:06.527Z,58.44
2017-07-04T00:17:32.903Z,56.92
2017-07-04T00:19:59.277Z,56.40
2017-07-04T00:22:25.620Z,59.26
2017-07-04T00:24:51.992Z,57.95
2017-07-04T00:27:18.334Z,58.95
2017-07-04T00:29:44.657Z,61.59
2017-07-04T00:32:10.986Z,61.01
2017-07-04T00:34:37.334Z,58.77
2017-07-04T00:37:03.649Z,60.02
2017-07-04T00:39:29.955Z,58.74
2017-07-04T00:41:56.325Z,58.28
2017-07-04T00:44:22.727Z,58.93
2017-07-04T00:46:49.074Z,62.08
2017-07-04T00:49:15.462Z,60.63
2017-07-04T00:51:41.783Z,58.41
2017-07-04T00:54:08.671Z,62.18
2017-07-04T00:56:35.044Z,61.77
2017-07-04T00:59:01.424Z,60.76
2017-07-04T01:01:27.775Z,59.36
2017-07-04T01:03:54.211Z,59.69
2017-07-04T01:06:20.568Z,59.54
2017-07-04T01:08:46.948Z,64.66
2017-07-04T01:11:13.426Z,62.94
2017-07-04T01:13:39.796Z,63.69
2017-07-04T01:16:06.138Z,62.11
2017-07-04T01:18:32.488Z,62.57
2017-07-04T01:20:58.854Z,64.65
2017-07-04T01:23:25.247Z,66.09
2017-07-04T01:25:51.588Z,65.84
2017-07-04T01:28:17.935Z,65.52
2017-07-04T01:30:44.308Z,66.17
2017-07-04T01:33:10.671Z,68.02
2017-07-04T01:35:37.037Z,63.55
2017-07-04T01:38:03.411Z,62.99
2017-07-04T01:40:29.770Z,63.79
2017-07-04T01:42:56.158Z,68.06
2017-07-04T01:45:22.496Z,64.20
2017-07-04T01:47:48.865Z,63.13
2017-07-04T01:50:15.226Z,64.42
2017-07-04T01:52:41.582Z,62.78
2017-07-04T01:55:07.936Z,61.97
2017-07-04T01:57:34.293Z,64.44
2017-07-04T02:00:00.640Z,65.85
2017-07-04T02:02:27.013Z,65.33
2017-07-04T02:04:53.372Z,65.82
2017-07-04T02:07:19.730Z,62.73
2017-07-04T02:09:46.096Z,67.38
2017-07-04T02:12:12.420Z,64.50
2017-07-04T02:14:38.749Z,63.14
2017-07-04T02:17:05.103Z,65.11
2017-07-04T02:19:31.427Z,64.44
2017-07-04T02:21:57.807Z,65.05
2017-07-04T02:24:24.182Z,63.22
2017-07-04T02:26:50.529Z,64.46
2017-07-04T02:29:16.896Z,65.87
2017-07-04T02:31:43.221Z,62.70
2017-07-04T02:34:09.610Z,63.41
2017-07-04T02:36:35.971Z,67.66
2017-07-04T02:39:02.404Z,68.11
2017-07-04T02:41:28.739Z,64.38
2017-07-04T02:43:55.078Z,63.18
2017-07-04T02:46:21.465Z,63.26
2017-07-04T02:48:47.843Z,64.58
2017-07-04T02:51:14.230Z,63.96
2017-07-04T02:53:40.582Z,64.20
2017-07-04T02:56:06.926Z,67.48
2017-07-04T02:58:33.260Z,64.22
2017-07-04T03:00:59.604Z,64.51
2017-07-04T03:03:34.547Z,63.31
2017-07-04T03:06:00.878Z,63.57
2017-07-04T03:08:27.228Z,64.33
2017-07-04T03:10:53.575Z,66.45
2017-07-04T03:13:19.904Z,65.02
2017-07-04T03:15:46.269Z,63.71
2017-07-04T03:18:12.717Z,63.46
2017-07-04T03:20:39.038Z,67.81
2017-07-04T03:23:05.400Z,66.15
2017-07-04T03:25:31.804Z,64.26
2017-07-04T03:27:58.129Z,64.17
2017-07-04T03:30:24.541Z,67.19
2017-07-04T03:32:50.881Z,67.25
2017-07-04T03:35:17.220Z,65.84
2017-07-04T03:37:43.599Z,65.57
2017-07-04T03:40:09.953Z,68.05
2017-07-04T03:42:36.313Z,65.84
2017-07-04T03:45:02.666Z,69.12
2017-07-04T03:47:28.980Z,66.22
2017-07-04T03:49:55.352Z,65.89
2017-07-04T03:52:21.720Z,66.39
2017-07-04T03:54:48.115Z,68.18
2017-07-04T03:57:14.522Z,67.12
2017-07-04T03:59:40.846Z,69.37
2017-07-04T04:02:07.213Z,69.95
2017-07-04T04:04:33.565Z,68.59
2017-07-04T04:06:59.926Z,67.16
2017-07-04T04:09:26.264Z,70.72
2017-07-04T04:11:52.690Z,67.29
2017-07-04T04:14:19.019Z,67.46
2017-07-04T04:16:45.367Z,67.19
2017-07-04T04:19:11.694Z,69.92
2017-07-04T04:21:38.045Z,67.63
2017-07-04T04:24:04.399Z,69.42
2017-07-04T04:26:30.734Z,68.96
2017-07-04T04:28:57.059Z,69.33
2017-07-04T04:31:23.423Z,69.26
2017-07-04T04:34:00.619Z,69.29
2017-07-04T04:36:26.953Z,68.54
2017-07-04T04:38:53.295Z,69.15
2017-07-04T04:41:19.661Z,68.77
2017-07-04T04:43:46.026Z,68.77
2017-07-04T04:46:12.361Z,68.18
2017-07-04T04:48:38.717Z,69.36
2017-07-04T04:51:05.065Z,67.75
2017-07-04T04:53:31.437Z,67.60
2017-07-04T04:55:57.805Z,68.31
2017-07-04T04:58:24.185Z,67.19
2017-07-04T05:00:50.532Z,68.55
2017-07-04T05:03:16.912Z,67.52
2017-07-04T05:05:43.262Z,67.35
2017-07-04T05:08:09.626Z,68.00
2017-07-04T05:10:35.988Z,69.79
2017-07-04T05:13:02.393Z,67.66
2017-07-04T05:15:28.765Z,71.65
2017-07-04T05:17:57.181Z,69.75
2017-07-04T05:20:23.532Z,69.50
2017-07-04T05:22:49.914Z,69.84
2017-07-04T05:25:16.288Z,70.26
2017-07-04T05:27:42.645Z,70.33
2017-07-04T05:30:09.007Z,71.26
2017-07-04T05:32:39.021Z,71.43
2017-07-04T05:35:05.373Z,71.26
2017-07-04T05:37:31.715Z,73.10
2017-07-04T05:39:58.080Z,71.68
2017-07-04T05:42:24.450Z,70.43
2017-07-04T05:44:50.802Z,69.27
2017-07-04T05:47:17.142Z,69.68
2017-07-04T05:49:43.503Z,69.58
2017-07-04T05:52:09.854Z,69.26
2017-07-04T05:54:36.296Z,69.01
2017-07-04T05:57:02.648Z,73.26
2017-07-04T05:59:29.029Z,71.66
2017-07-04T06:01:55.360Z,69.58
2017-07-04T06:04:21.692Z,70.75
2017-07-04T06:06:48.197Z,71.88
2017-07-04T06:09:14.548Z,69.76
2017-07-04T06:11:40.916Z,69.42
2017-07-04T06:14:07.291Z,69.72
2017-07-04T06:16:33.663Z,70.72
2017-07-04T06:19:00.001Z,72.18
2017-07-04T06:21:26.357Z,70.02
2017-07-04T06:23:52.698Z,70.34
2017-07-04T06:26:19.944Z,68.73
2017-07-04T06:28:46.296Z,68.93
2017-07-04T06:31:12.660Z,68.93
2017-07-04T06:33:39.011Z,70.28
2017-07-04T06:36:05.394Z,69.67
2017-07-04T06:38:31.721Z,68.51
2017-07-04T06:40:58.080Z,68.62
2017-07-04T06:43:24.432Z,68.70
2017-07-04T06:45:50.786Z,68.91
2017-07-04T06:48:17.144Z,68.14
2017-07-04T06:50:43.516Z,69.16
2017-07-04T06:53:09.869Z,68.29
2017-07-04T06:55:36.246Z,68.86
2017-07-04T06:58:02.600Z,69.57
2017-07-04T07:00:28.974Z,70.63
2017-07-04T07:02:55.346Z,68.02
2017-07-04T07:05:21.691Z,68.19
2017-07-04T07:07:48.053Z,67.21
2017-07-04T07:10:14.396Z,66.77
2017-07-04T07:12:40.736Z,68.36
2017-07-04T07:15:07.082Z,69.21
2017-07-04T07:17:33.509Z,66.52
2017-07-04T07:19:59.870Z,66.69
2017-07-04T07:22:26.218Z,66.78
2017-07-04T07:24:52.603Z,66.98
2017-07-04T07:27:18.970Z,67.10
2017-07-04T07:29:45.311Z,67.75
2017-07-04T07:32:11.672Z,66.81
2017-07-04T07:34:38.041Z,67.55
2017-07-04T07:37:04.418Z,66.32
2017-07-04T07:39:30.822Z,66.32
2017-07-04T07:41:57.196Z,66.19
2017-07-04T07:44:23.546Z,66.23
2017-07-04T07:46:49.889Z,67.10
2017-07-04T07:49:16.211Z,66.62
2017-07-04T07:51:42.566Z,65.94
2017-07-04T07:54:08.930Z,65.83
2017-07-04T07:56:35.260Z,65.50
2017-07-04T07:59:01.619Z,65.37
2017-07-04T08:01:27.979Z,65.87
2017-07-04T08:03:54.344Z,65.52
2017-07-04T08:06:20.715Z,65.29
2017-07-04T08:08:47.069Z,64.46
2017-07-04T08:11:13.418Z,65.70
2017-07-04T08:13:39.775Z,66.98
2017-07-04T08:16:06.126Z,64.58
2017-07-04T08:18:32.509Z,65.84
2017-07-04T08:20:58.866Z,64.75
2017-07-04T08:23:25.233Z,65.31
2017-07-04T08:25:51.575Z,64.74
2017-07-04T08:28:17.980Z,64.52
2017-07-04T08:30:44.328Z,64.78
2017-07-04T08:33:10.691Z,63.88
2017-07-04T08:35:37.077Z,63.38
2017-07-04T08:38:03.435Z,63.65
2017-07-04T08:40:29.824Z,63.64
2017-07-04T08:43:06.600Z,63.10
2017-07-04T08:45:32.955Z,64.27
2017-07-04T08:47:59.325Z,63.48
2017-07-04T08:50:25.702Z,63.40
2017-07-04T08:52:52.140Z,62.09
2017-07-04T08:55:18.525Z,61.43
2017-07-04T08:57:44.889Z,61.22
2017-07-04T09:00:11.269Z,59.64
2017-07-04T09:02:37.608Z,60.21
2017-07-04T09:05:04.002Z,61.33
2017-07-04T09:07:30.359Z,60.55
2017-07-04T09:09:56.726Z,61.65
2017-07-04T09:12:23.075Z,60.73
2017-07-04T09:14:49.443Z,61.96
2017-07-04T09:17:15.812Z,59.99
2017-07-04T09:19:42.230Z,58.95
2017-07-04T09:22:08.595Z,58.37
2017-07-04T09:24:34.940Z,58.03
2017-07-04T09:27:01.303Z,57.41
2017-07-04T09:29:27.643Z,59.36
2017-07-04T09:31:53.990Z,57.91
2017-07-04T09:34:20.340Z,59.80
2017-07-04T09:36:46.703Z,59.14
2017-07-04T09:39:13.082Z,59.09
2017-07-04T09:41:40.447Z,57.59
2017-07-04T09:44:06.795Z,56.23
2017-07-04T09:46:33.193Z,55.34
2017-07-04T09:48:59.575Z,54.58
2017-07-04T09:51:25.966Z,55.17
2017-07-04T09:53:52.349Z,53.49
2017-07-04T09:56:18.716Z,53.58
2017-07-04T09:58:45.106Z,52.84
2017-07-04T10:01:11.482Z,55.40
2017-07-04T10:03:37.823Z,53.55
2017-07-04T10:06:04.177Z,53.29
2017-07-04T10:08:30.523Z,52.17
2017-07-04T10:10:56.901Z,55.41
2017-07-04T10:13:23.253Z,52.28
2017-07-04T10:15:49.621Z,51.87
2017-07-04T10:18:15.993Z,52.97
2017-07-04T10:20:42.422Z,50.65
2017-07-04T10:23:08.774Z,53.11
2017-07-04T10:25:35.112Z,51.88
2017-07-04T10:28:01.465Z,50.88
2017-07-04T10:30:27.807Z,51.10
2017-07-04T10:32:54.296Z,50.04
2017-07-04T10:35:20.666Z,49.25
2017-07-04T10:37:47.026Z,51.14
2017-07-04T10:40:13.382Z,50.33
2017-07-04T10:42:39.763Z,48.99
2017-07-04T10:45:06.173Z,51.61
2017-07-04T10:47:32.540Z,47.68
2017-07-04T10:49:58.890Z,47.65
2017-07-04T10:52:25.261Z,46.25
2017-07-04T10:54:51.626Z,48.56
2017-07-04T10:57:17.981Z,48.00
2017-07-04T10:59:44.351Z,46.92
2017-07-04T11:02:10.739Z,46.48
2017-07-04T11:04:37.124Z,46.22
2017-07-04T11:07:03.549Z,48.32
2017-07-04T11:09:29.898Z,48.34
2017-07-04T11:11:56.287Z,47.85
2017-07-04T11:14:22.675Z,45.79
2017-07-04T11:16:49.018Z,45.45
2017-07-04T11:19:15.401Z,44.22
2017-07-04T11:21:41.780Z,43.96
2017-07-04T11:24:08.190Z,43.88
2017-07-04T11:26:34.587Z,44.54
2017-07-04T11:29:00.953Z,44.19
2017-07-04T11:31:27.298Z,43.09
2017-07-04T11:33:53.879Z,46.76
2017-07-04T11:36:20.258Z,43.94
2017-07-04T11:38:46.700Z,46.72
2017-07-04T11:41:13.057Z,44.29
2017-07-04T11:43:39.450Z,45.25
2017-07-04T11:46:05.842Z,44.46
2017-07-04T11:48:32.231Z,45.07
2017-07-04T11:50:58.591Z,47.30
2017-07-04T11:53:25.009Z,46.75
2017-07-04T11:55:51.464Z,47.36
2017-07-04T12:00:55.338Z,49.02
2017-07-04T12:03:21.736Z,51.20
2017-07-04T12:05:48.114Z,51.73
2017-07-04T12:08:14.498Z,50.70
2017-07-04T12:10:40.899Z,52.07
2017-07-04T12:13:07.275Z,54.66
2017-07-04T12:15:33.648Z,55.21
2017-07-04T12:18:00.030Z,56.14
2017-07-04T12:20:26.446Z,54.81
2017-07-04T12:22:52.818Z,55.71
2017-07-04T12:25:19.187Z,54.86
2017-07-04T12:27:45.549Z,54.72
2017-07-04T12:30:11.917Z,55.28
2017-07-04T12:32:38.309Z,55.72
2017-07-04T12:35:04.740Z,55.39
2017-07-04T12:37:31.178Z,54.98
2017-07-04T12:39:57.536Z,56.10
2017-07-04T12:42:23.915Z,57.25
2017-07-04T12:44:50.365Z,56.75
2017-07-04T12:47:18.674Z,56.68
2017-07-04T12:49:45.043Z,57.34
2017-07-04T12:52:11.437Z,57.39
2017-07-04T12:54:37.805Z,58.21
2017-07-04T12:57:04.173Z,57.89
2017-07-04T12:59:30.528Z,58.59
2017-07-04T13:01:56.878Z,57.68
2017-07-04T13:04:23.259Z,57.50
2017-07-04T13:06:49.642Z,58.38
2017-07-04T13:09:16.036Z,58.78
2017-07-04T13:11:42.401Z,59.06
2017-07-04T13:14:08.771Z,59.20
2017-07-04T13:16:35.131Z,58.26
2017-07-04T13:19:01.543Z,58.52
2017-07-04T13:21:27.923Z,59.72
2017-07-04T13:23:54.613Z,59.75
2017-07-04T13:26:20.974Z,59.50
2017-07-04T13:28:47.370Z,58.67
2017-07-04T13:31:13.791Z,59.37
2017-07-04T13:33:40.154Z,59.46
2017-07-04T13:38:56.163Z,59.14
2017-07-04T13:41:22.540Z,59.48
2017-07-04T13:43:48.899Z,59.40
2017-07-04T13:46:15.340Z,60.12
2017-07-04T13:48:41.700Z,59.69
2017-07-04T13:51:08.075Z,59.64
2017-07-04T13:53:34.426Z,60.18
2017-07-04T13:56:00.804Z,59.29
2017-07-04T13:58:27.155Z,59.38
2017-07-04T14:00:53.521Z,59.54
2017-07-04T14:03:19.940Z,59.88
2017-07-04T14:05:46.346Z,59.93
2017-07-04T14:08:12.705Z,58.65
2017-07-04T14:10:39.056Z,58.52
2017-07-04T14:13:05.447Z,58.37
2017-07-04T14:15:31.797Z,58.57
2017-07-04T14:17:58.182Z,57.66
2017-07-04T14:20:24.629Z,58.23
2017-07-04T14:22:51.021Z,58.85
2017-07-04T14:25:17.380Z,57.82
2017-07-04T14:27:43.731Z,57.10
2017-07-04T14:30:10.101Z,56.41
2017-07-04T14:32:36.480Z,54.65
2017-07-04T14:35:02.859Z,54.14
2017-07-04T14:37:29.220Z,53.97
2017-07-04T14:39:55.592Z,53.05
2017-07-04T14:42:22.019Z,51.62
2017-07-04T14:44:48.383Z,51.24
2017-07-04T14:47:14.757Z,51.46
2017-07-04T14:49:41.092Z,50.11
2017-07-04T14:52:07.440Z,50.44
2017-07-04T14:54:33.806Z,49.94
2017-07-04T14:57:00.187Z,48.32
2017-07-04T14:59:26.550Z,48.99
2017-07-04T15:01:52.920Z,48.75
2017-07-04T15:04:19.312Z,48.68
2017-07-04T15:06:45.762Z,48.92
2017-07-04T15:09:12.113Z,48.50
2017-07-04T15:11:38.465Z,48.02
2017-07-04T15:14:04.847Z,47.54
2017-07-04T15:16:31.631Z,47.79
2017-07-04T15:18:58.009Z,49.49
2017-07-04T15:21:24.403Z,47.73
2017-07-04T15:23:51.325Z,48.24
2017-07-04T15:26:17.742Z,48.08
2017-07-04T15:28:46.549Z,46.33
2017-07-04T15:31:12.913Z,45.60
2017-07-04T15:33:39.305Z,46.99
2017-07-04T15:36:05.676Z,46.59
2017-07-04T15:38:32.059Z,46.74
2017-07-04T15:40:58.498Z,45.97
2017-07-04T15:43:25.242Z,46.02
2017-07-04T15:45:55.911Z,46.65
2017-07-04T15:48:22.369Z,47.52
2017-07-04T15:50:48.997Z,47.70
2017-07-04T15:53:15.373Z,49.01
2017-07-04T15:55:41.830Z,48.85
2017-07-04T15:58:08.168Z,48.35
2017-07-04T16:00:34.549Z,47.74
2017-07-04T16:03:00.879Z,49.03
2017-07-04T16:05:27.315Z,50.40
2017-07-04T16:07:53.672Z,49.77
2017-07-04T16:10:20.559Z,49.56
2017-07-04T16:12:46.960Z,50.97
2017-07-04T16:15:13.338Z,49.96
2017-07-04T16:17:39.705Z,50.43
2017-07-04T16:20:06.053Z,49.20
2017-07-04T16:22:32.436Z,49.96
2017-07-04T16:24:58.839Z,49.39
2017-07-04T16:27:25.747Z,48.93
2017-07-04T16:29:52.096Z,49.40
2017-07-04T16:32:19.416Z,48.97
2017-07-04T16:34:45.795Z,49.09
2017-07-04T16:37:12.200Z,49.34
2017-07-04T16:39:38.637Z,48.63
2017-07-04T16:42:05.753Z,47.94
2017-07-04T16:44:32.229Z,47.62
2017-07-04T16:46:58.633Z,47.48
2017-07-04T16:49:25.197Z,48.95
2017-07-04T16:51:51.565Z,48.04
2017-07-04T16:54:17.967Z,47.79
2017-07-04T16:56:44.406Z,48.37
2017-07-04T16:59:10.832Z,47.55
2017-07-04T17:01:37.435Z,47.80
2017-07-04T17:04:03.894Z,48.82
2017-07-04T17:06:30.288Z,48.17
2017-07-04T17:08:56.647Z,47.64
2017-07-04T17:11:23.454Z,47.37
2017-07-04T17:13:49.930Z,48.66
2017-07-04T17:16:16.362Z,48.41
2017-07-04T17:18:42.848Z,47.58
2017-07-04T17:21:09.277Z,48.12
2017-07-04T17:23:35.680Z,47.94
2017-07-04T17:26:02.091Z,47.83
2017-07-04T17:28:28.696Z,47.93
2017-07-04T17:30:56.666Z,47.92
2017-07-04T17:33:32.665Z,48.24
2017-07-04T17:35:59.975Z,48.04
2017-07-04T17:38:27.311Z,47.63
2017-07-04T17:41:01.955Z,47.51
2017-07-04T17:43:29.378Z,48.28
2017-07-04T17:45:56.880Z,48.96
2017-07-04T17:48:24.538Z,48.25
2017-07-04T17:50:52.214Z,49.46
2017-07-04T17:53:18.686Z,50.01
2017-07-04T17:55:45.656Z,51.28
2017-07-04T17:58:12.041Z,49.27
2017-07-04T18:00:39.269Z,50.41
2017-07-04T18:03:05.800Z,51.35
2017-07-04T18:05:40.077Z,51.74
2017-07-04T18:08:06.537Z,52.52
2017-07-04T18:13:36.647Z,52.77
2017-07-04T18:16:10.795Z,52.09
2017-07-04T18:18:40.066Z,51.38
2017-07-04T18:21:08.762Z,51.97
2017-07-04T18:23:35.515Z,52.98
2017-07-04T18:28:38.433Z,52.58
2017-07-04T18:31:11.207Z,52.51
2017-07-04T18:33:50.199Z,52.94
2017-07-04T18:36:16.660Z,52.73
2017-07-04T18:38:44.031Z,53.56
2017-07-04T18:41:10.929Z,53.96
2017-07-04T18:43:44.941Z,53.81
2017-07-04T18:47:15.219Z,54.95
2017-07-04T18:52:56.014Z,56.03
2017-07-04T18:55:24.756Z,56.49
2017-07-04T18:58:19.880Z,55.91
2017-07-04T19:01:10.424Z,56.64
2017-07-04T19:06:25.779Z,56.70
2017-07-04T19:11:32.566Z,57.63
2017-07-04T19:14:00.231Z,57.89
2017-07-04T19:16:26.683Z,58.25
2017-07-04T19:18:56.871Z,57.69
2017-07-04T19:21:29.154Z,57.48
2017-07-04T19:29:05.023Z,60.04
2017-07-04T19:31:31.573Z,61.21
2017-07-04T19:36:36.568Z,61.38
2017-07-04T19:39:04.090Z,61.98
2017-07-04T19:47:18.026Z,64.69
2017-07-04T19:49:45.872Z,65.29
2017-07-04T19:52:12.407Z,65.47
2017-07-04T19:54:38.790Z,64.74
2017-07-04T19:57:05.443Z,62.44
2017-07-04T19:59:31.823Z,60.77
2017-07-04T20:01:58.173Z,60.21
2017-07-04T20:04:24.541Z,60.73
2017-07-04T20:06:50.904Z,60.42
2017-07-04T20:09:17.299Z,60.41
2017-07-04T20:11:43.680Z,59.89
2017-07-04T20:14:10.100Z,59.99
2017-07-04T20:16:36.475Z,62.06
2017-07-04T20:19:02.862Z,61.90
2017-07-04T20:21:29.253Z,61.19
2017-07-04T20:23:55.697Z,61.52
2017-07-04T20:26:22.030Z,61.43
2017-07-04T20:28:48.364Z,60.84
2017-07-04T20:31:14.721Z,66.23
2017-07-04T20:33:41.098Z,68.07
2017-07-04T20:36:07.449Z,66.27
2017-07-04T20:41:26.940Z,67.28
2017-07-04T20:43:53.321Z,63.84
2017-07-04T20:46:19.699Z,61.84
2017-07-04T20:48:46.068Z,63.85
2017-07-04T20:51:12.427Z,66.98
2017-07-04T20:53:38.807Z,64.59
2017-07-04T20:56:05.207Z,67.80
2017-07-04T20:58:31.600Z,68.55
2017-07-04T21:00:58.017Z,68.04
2017-07-04T21:03:24.384Z,65.54
2017-07-04T21:05:51.676Z,63.26
2017-07-04T21:08:18.503Z,62.60
2017-07-04T21:10:44.885Z,62.94
2017-07-04T21:13:11.502Z,62.58
2017-07-04T21:15:37.928Z,62.41
2017-07-04T21:18:04.754Z,62.43
2017-07-04T21:20:31.135Z,64.04
2017-07-04T21:22:57.494Z,70.01
2017-07-04T21:25:24.386Z,71.76
2017-07-04T21:27:51.547Z,72.14
2017-07-04T21:30:17.988Z,73.15
2017-07-04T21:32:44.382Z,73.07
2017-07-04T21:35:10.941Z,71.85
2017-07-04T21:37:37.391Z,69.99
2017-07-04T21:40:03.782Z,66.98
2017-07-04T21:42:31.443Z,64.70
2017-07-04T21:44:57.854Z,64.46
2017-07-04T21:47:24.242Z,65.29
2017-07-04T21:49:50.814Z,66.05
2017-07-04T21:52:17.183Z,67.45
2017-07-04T21:54:43.562Z,65.80
2017-07-04T21:57:09.954Z,64.55
2017-07-04T21:59:36.335Z,72.17
2017-07-04T22:02:02.709Z,74.72
2017-07-04T22:04:29.212Z,74.19
2017-07-04T22:06:55.613Z,70.33
2017-07-04T22:09:29.109Z,66.37
2017-07-04T22:11:55.464Z,66.05
2017-07-04T22:14:21.817Z,65.72
2017-07-04T22:19:19.633Z,74.91
2017-07-04T22:21:46.007Z,75.50
2017-07-04T22:24:12.370Z,73.95
2017-07-04T22:26:38.721Z,76.26
2017-07-04T22:29:05.095Z,76.82
2017-07-04T22:31:31.481Z,75.68
2017-07-04T22:33:57.865Z,69.98
2017-07-04T22:36:24.271Z,73.62
2017-07-04T22:38:50.651Z,77.82
2017-07-04T22:41:17.022Z,77.03
2017-07-04T22:43:43.416Z,72.54
2017-07-04T22:46:09.795Z,69.34
2017-07-04T22:48:36.147Z,67.01
2017-07-04T22:51:02.584Z,67.37
2017-07-04T22:53:28.955Z,68.51
2017-07-04T22:55:55.328Z,69.59
2017-07-04T22:58:21.672Z,68.13
2017-07-04T23:00:48.091Z,66.71
2017-07-04T23:03:14.811Z,67.69
2017-07-04T23:05:41.179Z,73.72
2017-07-04T23:08:07.603Z,75.11
2017-07-04T23:10:33.966Z,77.34
2017-07-04T23:13:01.015Z,79.40
2017-07-04T23:15:28.175Z,79.09
2017-07-04T23:17:54.647Z,74.81
2017-07-04T23:20:21.037Z,71.95
2017-07-04T23:22:47.531Z,72.00
2017-07-04T23:25:13.914Z,77.77
2017-07-04T23:27:40.516Z,78.01
2017-07-04T23:30:07.271Z,73.32
2017-07-04T23:32:33.671Z,70.79
2017-07-04T23:35:00.031Z,74.47
2017-07-04T23:37:26.403Z,71.95
2017-07-04T23:39:52.786Z,69.83
2017-07-04T23:42:19.187Z,68.38
2017-07-04T23:44:45.554Z,73.45
2017-07-04T23:47:11.941Z,78.29
2017-07-04T23:49:38.316Z,80.37
2017-07-04T23:52:04.688Z,78.03
2017-07-04T23:54:31.104Z,72.38
2017-07-04T23:56:57.502Z,74.55
2017-07-04T23:59:23.930Z,71.34
